Flight Track Log - Related Links

Times and Time Zones

All times are in EDT time to prevent confusion due to time zone crossing. See the N716ES flight status page for this flight to view local times or setup timezone preferences in your user account.

Time Position Orientation Groundspeed Altitude Reporting Facility
EDT Latitude Longitude Course Direction KTS MPH feet Rate Location/Type
Thu 03:12:57 PM 43.1156 -78.2553 90° East 128 147 5,600  Level Cleveland Center
Thu 03:13:20 PM 43.1172 -78.2408 81° East 129 148 5,600  Level Cleveland Center
Thu 03:13:57 PM 43.1189 -78.2039 86° East 131 151 5,600  Level Cleveland Center
Thu 03:14:00 PM 43.1335 -78.6049 84° East  Level Estimated
Thu 03:14:23 PM 43.1186 -78.1911 92° East 129 148 5,600  Level Cleveland Center
Thu 03:14:58 PM 43.1197 -78.1547 88° East 129 148 5,600  Level Cleveland Center
Thu 03:15:00 PM 43.1336 -78.5477 90° East  Level FlightAware Approximate
Thu 03:15:25 PM 43.1206 -78.1422 85° East 129 148 5,600  Level Cleveland Center
Thu 03:15:58 PM 43.1228 -78.1064 85° East 130 150 5,600  Level Cleveland Center
Thu 03:16:00 PM 43.1336 -78.4905 90° East  Level FlightAware Approximate
Thu 03:16:27 PM 43.1242 -78.0839 85° East 129 148 5,600  Level Cleveland Center
Thu 03:16:59 PM 43.1256 -78.0578 86° East 128 147 5,500 -97 Descending Cleveland Center
Thu 03:17:00 PM 43.1336 -78.4334 90° East  Level FlightAware Approximate
Thu 03:17:29 PM 43.1272 -78.0350 84° East 129 148 5,500  Level Cleveland Center
Thu 03:18:00 PM 43.1336 -78.3762 90° East  Level FlightAware Approximate
Thu 03:18:00 PM 43.1283 -78.0092 87° East 129 148 5,500  Level Cleveland Center
Thu 03:18:31 PM 43.1294 -77.9864 86° East 129 148 5,600 100 Climbing Cleveland Center
Thu 03:19:00 PM 43.1333 -77.9611 78° East 125 144 5,600 -63 Level Cleveland Center
Thu 03:20:07 PM 43.1367 -77.9069 85° East 127 146 5,500 -47 Descending Cleveland Center
Thu 03:21:08 PM 43.1417 -77.8592 82° East 130 150 5,500 50 Level Cleveland Center
Thu 03:22:08 PM 43.1444 -77.8106 86° East 128 147 5,600 52 Climbing Cleveland Center
Thu 03:23:03 PM 43.1486 -77.7653 83° East 128 147 5,600 -52 Level Cleveland Center
Thu 03:24:04 PM 43.1556 -77.7178 79° East 128 147 5,500 -98 Descending Cleveland Center
Thu 03:26:00 PM 43.1715 -77.6103 78° East  Level FlightAware Approximate
Thu 03:33:00 PM 43.2167 -77.2205 90° East  Level FlightAware Approximate
Thu 03:34:00 PM 43.2237 -77.1650 75° East  Level FlightAware Approximate
Thu 03:35:00 PM 43.2333 -77.1167 75° East  Level FlightAware Approximate
Thu 03:36:00 PM 43.2346 -77.1195 262° West  Level Estimated
Thu 03:37:00 PM 43.2346 -77.1195 262° West  Level Estimated
Thu 03:38:00 PM 43.2346 -77.1195 270° West  Level Estimated
Thu 03:39:00 PM 43.2346 -77.1195 264° West  Level Estimated
Thu 03:40:00 PM 43.2346 -77.1195 264° West  Level Estimated
Thu 03:41:00 PM 43.2346 -77.1195 264° West  Level Estimated
Thu 03:42:00 PM 43.2346 -77.1195 264° West  Level Estimated
Thu 03:43:00 PM 43.2346 -77.1195 264° West  Level Estimated
Thu 03:44:00 PM 43.2333 -77.1167 75° East  Level FlightAware Approximate
Thu 03:45:00 PM 43.2346 -77.1195 262° West  Level Estimated
Thu 03:46:00 PM 43.2346 -77.1195 262° West  Level Estimated
Thu 03:47:00 PM 43.2346 -77.1195 270° West  Level Estimated
Thu 03:48:00 PM 43.2346 -77.1195 264° West  Level Estimated
Thu 03:49:00 PM 43.2346 -77.1195 264° West  Level Estimated
Thu 03:50:00 PM 43.2346 -77.1195 264° West  Level Estimated
Thu 03:51:00 PM 43.2346 -77.1195 264° West  Level Estimated
Thu 03:52:00 PM 43.2346 -77.1195 264° West  Level Estimated
Thu 03:53:00 PM 43.2333 -77.1167 75° East  Level FlightAware Approximate
Thu 03:54:00 PM 43.2346 -77.1195 262° West  Level Estimated
Thu 03:55:00 PM 43.2346 -77.1195 262° West  Level Estimated
Thu 03:56:00 PM 43.2346 -77.1195 270° West  Level Estimated
Thu 03:57:00 PM 43.2346 -77.1195 264° West  Level Estimated
Thu 03:58:00 PM 43.2346 -77.1195 264° West  Level Estimated
Thu 03:59:00 PM 43.2346 -77.1195 264° West  Level Estimated
Thu 04:00:00 PM 43.2346 -77.1195 264° West  Level Estimated
Thu 04:01:00 PM 43.2346 -77.1195 264° West  Level Estimated
Thu 04:02:00 PM 43.2333 -77.1167 75° East  Level FlightAware Approximate
Thu 04:03:00 PM 43.2346 -77.1195 262° West  Level Estimated
Thu 04:04:00 PM 43.2346 -77.1195 262° West  Level Estimated
Thu 04:05:00 PM 43.2346 -77.1195 270° West  Level Estimated
Thu 04:06:00 PM 43.2346 -77.1195 264° West  Level Estimated
Thu 04:07:00 PM 43.2346 -77.1195 264° West  Level Estimated
Thu 04:08:00 PM 43.2346 -77.1195 264° West  Level Estimated
Thu 04:09:00 PM 43.2346 -77.1195 264° West  Level Estimated
Thu 04:10:00 PM 43.2346 -77.1195 264° West  Level Estimated
Thu 04:11:00 PM 43.2333 -77.1167 75° East  Level FlightAware Approximate
Thu 04:12:00 PM 43.2346 -77.1195 262° West  Level Estimated
Thu 04:13:00 PM 43.2346 -77.1195 262° West  Level Estimated
Thu 04:14:00 PM 43.2346 -77.1195 270° West  Level Estimated
Thu 04:15:00 PM 43.2346 -77.1195 264° West  Level Estimated
Thu 04:16:00 PM 43.2346 -77.1195 264° West  Level Estimated
Thu 04:17:00 PM 43.2346 -77.1195 264° West  Level Estimated
Thu 04:18:00 PM 43.2346 -77.1195 264° West  Level Estimated
Thu 04:19:00 PM 43.2346 -77.1195 264° West  Level Estimated
Thu 04:20:00 PM 43.2333 -77.1167 75° East  Level FlightAware Approximate
Thu 04:21:00 PM 43.2346 -77.1195 262° West  Level Estimated
Thu 04:22:00 PM 43.2346 -77.1195 262° West  Level Estimated
Thu 04:23:00 PM 43.2346 -77.1195 270° West  Level Estimated
Thu 04:24:00 PM 43.2346 -77.1195 264° West  Level Estimated
Thu 04:25:00 PM 43.2346 -77.1195 264° West  Level Estimated
Thu 04:26:00 PM 43.2346 -77.1195 264° West  Level Estimated
Thu 04:27:00 PM 43.2346 -77.1195 264° West  Level Estimated
Thu 04:28:00 PM 43.2346 -77.1195 264° West  Level Estimated
Thu 04:29:00 PM 43.2333 -77.1167 75° East  Level FlightAware Approximate
Thu 04:30:00 PM 43.2346 -77.1195 262° West  Level Estimated
Thu 04:31:00 PM 43.2346 -77.1195 262° West  Level Estimated
Thu 04:32:00 PM 43.2346 -77.1195 270° West  Level Estimated
Thu 04:33:00 PM 43.2346 -77.1195 264° West  Level Estimated
Thu 04:34:00 PM 43.2346 -77.1195 264° West  Level Estimated
Thu 04:35:00 PM 43.2346 -77.1195 264° West  Level Estimated
Thu 04:36:00 PM 43.2346 -77.1195 264° West  Level Estimated
Thu 04:37:00 PM 43.2346 -77.1195 264° West  Level Estimated
Thu 04:38:00 PM 43.2333 -77.1167 75° East  Level FlightAware Approximate
Thu 04:39:00 PM 43.2346 -77.1195 262° West  Level Estimated
Thu 04:40:00 PM 43.2346 -77.1195 262° West  Level Estimated
Thu 04:41:00 PM 43.2346 -77.1195 270° West  Level Estimated
Thu 04:42:00 PM 43.2346 -77.1195 264° West  Level Estimated
Thu 04:43:00 PM 43.2346 -77.1195 264° West  Level Estimated
Thu 04:44:00 PM 43.2346 -77.1195 264° West  Level Estimated
Thu 04:45:00 PM 43.2346 -77.1195 264° West  Level Estimated
Thu 04:46:00 PM 43.2346 -77.1195 264° West  Level Estimated
Thu 04:47:00 PM 43.2333 -77.1167 75° East  Level FlightAware Approximate
Thu 04:48:00 PM 43.2346 -77.1195 262° West  Level Estimated
Thu 04:49:00 PM 43.2346 -77.1195 262° West  Level Estimated
Thu 04:50:00 PM 43.2346 -77.1195 270° West  Level Estimated
Thu 04:51:00 PM 43.2346 -77.1195 264° West  Level Estimated
Thu 04:52:00 PM 43.2346 -77.1195 264° West  Level Estimated
Thu 04:53:00 PM 43.2346 -77.1195 264° West  Level Estimated
Thu 04:54:00 PM 43.2346 -77.1195 264° West  Level Estimated
Thu 04:55:00 PM 43.2346 -77.1195 264° West  Level Estimated

Login

Don't have an account? Register now (free) for customized features, flight alerts, and more!